Time;durP1;ratioP1;P1;durP2;ratioP2;P2;SDS_P1;SDS_P2;PMS_P1;PMS_P2;Temp;Humidity;BMP_temperature;BMP_pressure;BME280_temperature;BME280_humidity;BME280_pressure;Samples;Min_cycle;Max_cycle;Signal;HPM_P1;HPM_P2
2021/01/06 00:01:03;;;;;;;47.97;24.05;;;5.20;83.70;;;4.32;67.61;94180.44;5051319;28;20541;-80
2021/01/06 00:03:30;;;;;;;47.90;25.42;;;5.20;83.70;;;4.30;67.60;94178.00;5051346;28;20188;-80
2021/01/06 00:06:02;;;;;;;47.70;24.85;;;5.20;83.70;;;4.31;67.40;94181.44;5034217;28;20230;-81
2021/01/06 00:08:29;;;;;;;45.80;24.75;;;5.20;84.50;;;4.30;67.87;94179.81;5034526;28;20203;-80
2021/01/06 00:10:58;;;;;;;47.63;24.58;;;5.20;83.70;;;4.29;67.49;94178.97;5050948;28;20222;-79
2021/01/06 00:13:26;;;;;;;50.30;25.05;;;5.10;83.70;;;4.25;67.53;94174.34;5050474;28;20223;-80
2021/01/06 00:15:54;;;;;;;45.15;23.67;;;5.20;83.70;;;4.29;67.32;94181.59;5034145;28;20215;-80
2021/01/06 00:18:24;;;;;;;53.88;25.98;;;5.10;83.70;;;4.30;67.65;94182.41;5018317;28;20600;-80
2021/01/06 00:20:51;;;;;;;54.85;26.73;;;5.10;83.70;;;4.27;67.60;94173.19;5050479;28;20211;-80
2021/01/06 00:23:18;;;;;;;49.40;25.83;;;5.10;83.70;;;4.28;67.74;94179.97;5051216;28;20188;-81
2021/01/06 00:25:45;;;;;;;50.58;25.75;;;5.10;83.70;;;4.29;67.63;94175.59;5034013;28;20256;-80
2021/01/06 00:28:19;;;;;;;50.78;25.73;;;5.20;83.80;;;4.30;67.66;94180.59;5050553;28;20223;-80
2021/01/06 00:30:57;;;;;;;57.53;28.15;;;5.10;83.70;;;4.31;67.76;94176.25;5050919;28;20223;-80
2021/01/06 00:33:31;;;;;;;51.05;25.52;;;5.20;83.80;;;4.28;67.77;94189.53;5033989;28;20646;-79
2021/01/06 00:36:12;;;;;;;53.80;25.13;;;5.10;83.70;;;4.28;67.52;94176.56;5033648;28;20273;-80
2021/01/06 00:38:39;;;;;;;48.92;25.88;;;5.20;83.80;;;4.25;67.64;94171.72;5034555;28;20203;-80
2021/01/06 00:41:06;;;;;;;50.03;25.17;;;5.20;83.70;;;4.27;67.58;94180.97;5051108;28;20247;-81
2021/01/06 00:43:34;;;;;;;51.03;24.33;;;5.20;83.80;;;4.26;67.40;94168.13;5014422;28;20291;-80
2021/01/06 00:46:00;;;;;;;57.78;26.02;;;5.10;83.70;;;4.27;67.28;94167.97;5049962;28;20298;-80
2021/01/06 00:48:27;;;;;;;51.35;25.30;;;5.20;83.80;;;4.27;67.37;94173.19;5034744;28;20200;-80
2021/01/06 00:50:58;;;;;;;49.95;24.70;;;5.20;83.70;;;4.28;67.60;94181.75;5050072;28;20218;-80
2021/01/06 00:53:27;;;;;;;48.13;24.75;;;5.10;83.70;;;4.26;67.62;94171.56;5050863;28;20195;-81
2021/01/06 00:56:00;;;;;;;49.88;23.95;;;5.10;83.70;;;4.28;67.59;94173.97;5019587;28;20223;-80
2021/01/06 00:58:29;;;;;;;48.53;23.55;;;5.10;83.80;;;4.27;67.56;94175.78;5022417;28;20201;-80
2021/01/06 01:00:57;;;;;;;44.25;22.05;;;5.10;83.80;;;4.27;67.58;94175.78;5021837;28;20227;-80
2021/01/06 01:03:33;;;;;;;48.67;22.90;;;5.10;84.60;;;4.27;67.37;94175.78;5039755;28;20204;-80
2021/01/06 01:06:01;;;;;;;42.50;22.10;;;5.10;83.70;;;4.26;67.71;94168.13;5053146;28;20708;-79
2021/01/06 01:08:27;;;;;;;44.78;21.77;;;5.10;83.70;;;4.26;67.68;94168.13;5038033;28;20245;-81
2021/01/06 01:10:54;;;;;;;45.58;21.15;;;5.20;83.80;;;4.21;67.77;94163.47;5054499;28;20233;-80
2021/01/06 01:13:24;;;;;;;46.53;22.92;;;5.10;83.70;;;4.25;67.49;94163.94;5054365;28;20200;-81
2021/01/06 01:15:55;;;;;;;45.67;22.77;;;5.10;83.80;;;4.26;67.44;94173.31;5037231;28;20223;-81
2021/01/06 01:18:28;;;;;;;45.22;22.30;;;5.10;83.80;;;4.24;67.75;94168.31;5014599;28;20188;-80
2021/01/06 01:20:57;;;;;;;44.80;21.77;;;5.10;83.70;;;4.23;67.83;94164.09;5017921;28;20225;-80
2021/01/06 01:23:28;;;;;;;48.08;23.40;;;5.10;83.70;;;4.23;67.58;94169.28;5022240;28;20195;-80
2021/01/06 01:25:57;;;;;;;46.70;22.73;;;5.10;83.70;;;4.23;67.58;94163.31;5054353;28;20230;-79
2021/01/06 01:28:26;;;;;;;45.33;21.30;;;5.10;83.70;;;4.21;67.66;94155.69;5037818;28;20192;-80
2021/01/06 01:30:54;;;;;;;47.05;20.75;;;5.10;83.80;;;4.23;67.63;94161.50;5054380;28;20682;-80
2021/01/06 01:33:25;;;;;;;48.22;21.38;;;5.10;83.80;;;4.23;67.56;94158.13;5070476;28;20208;-79
2021/01/06 01:36:00;;;;;;;56.60;22.00;;;5.10;83.80;;;4.20;67.48;94148.06;5050920;28;20233;-80
2021/01/06 01:38:30;;;;;;;59.30;22.15;;;5.10;83.80;;;4.14;67.76;94145.16;5053880;28;20188;-81
2021/01/06 01:41:11;;;;;;;53.38;20.65;;;5.10;83.80;;;4.17;67.44;94151.81;5054307;28;20291;-81
2021/01/06 01:43:39;;;;;;;78.10;21.60;;;5.10;83.80;;;4.12;67.52;94138.53;5020585;28;20559;-79
2021/01/06 01:46:08;;;;;;;75.95;20.92;;;5.10;83.80;;;4.14;67.65;94139.97;5037666;28;20685;-81
2021/01/06 01:48:51;;;;;;;76.85;22.33;;;5.10;83.80;;;4.08;67.46;94132.88;5070547;28;20212;-80
2021/01/06 01:51:41;;;;;;;79.50;20.33;;;5.00;83.90;;;4.08;67.25;94126.91;5037365;28;20216;-80
2021/01/06 01:54:12;;;;;;;74.50;19.15;;;5.00;83.90;;;4.05;68.08;94119.44;5058621;28;20200;-81
2021/01/06 01:56:41;;;;;;;68.20;19.35;;;5.00;83.80;;;4.08;67.59;94125.09;5038515;28;20580;-80
2021/01/06 01:59:17;;;;;;;71.45;19.20;;;5.00;83.90;;;4.05;67.53;94122.03;5070420;28;20197;-81
2021/01/06 02:01:48;;;;;;;71.28;19.52;;;5.00;83.90;;;4.06;67.82;94123.66;5036935;28;20278;-81
2021/01/06 02:04:36;;;;;;;87.82;19.50;;;5.00;83.90;;;4.03;67.70;94122.22;5036928;28;20200;-81
2021/01/06 02:07:17;;;;;;;92.60;19.88;;;5.00;83.90;;;4.05;67.52;94122.03;5053046;28;20208;-79
2021/01/06 02:10:07;;;;;;;61.85;18.73;;;5.00;84.00;;;4.03;67.78;94113.59;5053268;28;20593;-79
2021/01/06 02:12:49;;;;;;;74.60;18.48;;;4.90;84.80;;;4.01;67.77;94104.19;5033261;28;20667;-80
2021/01/06 02:15:47;;;;;;;63.00;17.73;;;5.00;84.00;;;4.00;67.79;94113.00;5066678;28;20246;-80
2021/01/06 02:18:16;;;;;;;57.05;17.02;;;4.90;83.90;;;3.99;67.78;94102.75;5052831;28;20253;-81
2021/01/06 02:21:10;;;;;;;50.38;17.05;;;4.90;83.80;;;3.96;67.86;94106.50;5053005;28;20218;-80
2021/01/06 02:23:38;;;;;;;46.63;17.38;;;4.90;83.90;;;3.96;67.54;94095.34;5053744;28;20195;-80
2021/01/06 02:26:05;;;;;;;32.85;15.65;;;4.90;83.80;;;3.91;67.70;94095.84;5052951;28;20227;-80
2021/01/06 02:28:33;;;;;;;37.72;15.48;;;4.90;83.90;;;3.95;67.86;94096.31;5035439;28;20192;-80
2021/01/06 02:31:00;;;;;;;36.15;15.20;;;4.90;84.70;;;3.97;68.04;94089.16;5052744;28;20644;-80
2021/01/06 02:33:30;;;;;;;36.95;15.73;;;4.90;83.90;;;3.96;67.90;94092.75;5036110;28;20207;-81
2021/01/06 02:35:57;;;;;;;37.30;16.25;;;4.80;83.90;;;3.93;67.88;94074.91;5019533;28;20216;-81
2021/01/06 02:38:24;;;;;;;32.35;15.73;;;4.80;83.90;;;3.98;67.88;94091.59;5052366;28;20609;-80
2021/01/06 02:40:53;;;;;;;44.97;17.40;;;4.80;84.00;;;4.00;67.95;94091.41;5052978;28;20220;-80
2021/01/06 02:43:22;;;;;;;40.92;16.27;;;4.80;84.00;;;3.98;67.94;94083.00;5049346;28;20262;-80
2021/01/06 02:45:49;;;;;;;41.45;15.20;;;4.90;84.80;;;3.97;68.06;94074.41;5066170;28;20244;-80
2021/01/06 02:48:17;;;;;;;39.33;16.42;;;4.80;84.00;;;3.99;67.80;94077.63;5043374;28;20210;-81
2021/01/06 02:50:47;;;;;;;36.13;15.00;;;4.80;84.00;;;4.00;67.85;94075.84;5035722;28;20310;-80
2021/01/06 02:53:24;;;;;;;44.00;15.55;;;4.80;84.00;;;4.00;67.89;94076.66;5053039;28;20192;-80
2021/01/06 02:55:52;;;;;;;36.05;16.10;;;4.90;84.10;;;3.98;67.92;94067.44;5035685;28;20218;-79
2021/01/06 02:58:23;;;;;;;36.67;15.27;;;4.90;84.10;;;3.99;68.00;94079.41;5052221;28;20279;-81
2021/01/06 03:00:52;;;;;;;43.20;16.63;;;4.90;84.00;;;3.98;67.79;94070.81;5034920;28;20297;-79
2021/01/06 03:03:25;;;;;;;42.28;15.45;;;4.90;84.00;;;3.97;67.91;94071.00;5066067;28;20197;-79
2021/01/06 03:06:08;;;;;;;31.30;14.80;;;4.90;84.00;;;3.94;67.65;94061.78;5047357;28;20712;-79
2021/01/06 03:08:37;;;;;;;28.25;14.02;;;4.90;84.00;;;3.97;68.07;94066.63;5060313;28;20249;-80
2021/01/06 03:11:07;;;;;;;27.13;13.48;;;4.90;84.00;;;3.95;67.84;94060.78;5064731;28;20212;-80
2021/01/06 03:13:34;;;;;;;40.08;14.55;;;4.90;84.10;;;3.99;67.95;94063.84;5071613;28;20207;-79
2021/01/06 03:16:01;;;;;;;32.05;12.75;;;4.90;84.10;;;3.98;67.75;94057.84;5018848;28;20221;-79
2021/01/06 03:18:29;;;;;;;26.63;13.10;;;4.90;84.00;;;3.99;67.39;94059.47;5015578;28;20207;-79
2021/01/06 03:21:03;;;;;;;25.42;13.52;;;4.90;84.00;;;3.99;67.54;94061.25;5043185;28;20664;-81
2021/01/06 03:23:40;;;;;;;27.10;12.35;;;4.90;84.10;;;3.99;67.98;94058.66;5032617;28;20231;-80
2021/01/06 03:26:12;;;;;;;20.27;12.25;;;4.90;84.00;;;3.98;67.84;94057.06;5048985;28;20215;-79
2021/01/06 03:28:40;;;;;;;20.90;11.20;;;4.90;84.00;;;3.97;67.69;94045.84;5062949;28;20618;-79
2021/01/06 03:31:16;;;;;;;18.33;12.20;;;4.90;84.00;;;3.95;67.76;94047.81;5050421;28;20208;-79
2021/01/06 03:33:53;;;;;;;18.52;11.18;;;4.90;84.00;;;3.97;67.94;94047.66;5045442;28;20232;-80
2021/01/06 03:36:25;;;;;;;19.55;10.65;;;4.90;84.10;;;3.97;67.86;94045.06;5052576;28;20220;-80
2021/01/06 03:39:02;;;;;;;18.70;10.73;;;4.80;83.90;;;3.99;68.03;94045.69;5049471;28;20291;-80
2021/01/06 03:41:30;;;;;;;15.38;10.02;;;4.90;84.10;;;3.95;67.71;94042.63;5063142;28;20282;-79
2021/01/06 03:44:06;;;;;;;14.60;9.95;;;4.80;84.80;;;3.97;67.85;94045.06;5033146;28;20196;-79
2021/01/06 03:47:02;;;;;;;16.73;9.77;;;4.90;84.00;;;3.97;67.61;94039.88;5043034;28;20216;-79
2021/01/06 03:49:54;;;;;;;15.48;9.63;;;4.90;84.10;;;3.97;68.06;94040.66;5046282;28;20216;-79
2021/01/06 03:52:51;;;;;;;16.55;9.20;;;4.90;84.00;;;3.97;67.92;94032.09;5056151;28;20275;-79
2021/01/06 03:55:38;;;;;;;11.35;8.10;;;4.90;84.00;;;3.94;67.83;94038.44;5072278;28;20220;-79
2021/01/06 03:58:05;;;;;;;12.70;8.13;;;4.80;83.90;;;3.95;67.96;94034.84;5047400;28;20319;-78
2021/01/06 04:00:52;;;;;;;12.75;8.32;;;4.90;83.90;;;3.94;67.67;94030.66;5034164;28;20220;-80
2021/01/06 04:03:32;;;;;;;11.10;7.30;;;4.80;84.00;;;3.97;67.56;94034.69;5048578;28;20192;-79
2021/01/06 04:06:13;;;;;;;10.32;7.35;;;4.80;84.00;;;3.96;67.97;94031.25;5044542;28;20211;-79
2021/01/06 04:09:01;;;;;;;10.20;7.28;;;4.80;83.90;;;3.98;68.12;94028.53;5034603;28;20646;-80
2021/01/06 04:11:33;;;;;;;10.27;7.05;;;4.80;84.00;;;3.99;67.98;94019.72;5049433;28;20191;-79
2021/01/06 04:14:00;;;;;;;10.35;6.65;;;4.90;84.00;;;3.98;67.93;94026.72;5049468;28;20196;-80
2021/01/06 04:16:27;;;;;;;11.00;6.65;;;4.90;84.00;;;3.98;67.67;94024.13;5031429;28;20192;-80
2021/01/06 04:18:55;;;;;;;9.32;6.40;;;4.90;84.00;;;4.00;67.92;94017.00;5033666;28;20323;-79
2021/01/06 04:21:21;;;;;;;8.23;5.72;;;4.90;84.00;;;4.02;67.72;94016.81;5032855;28;20654;-79
2021/01/06 04:23:49;;;;;;;10.32;6.57;;;4.90;84.00;;;3.97;67.94;94009.53;5043755;28;20656;-79
2021/01/06 04:26:18;;;;;;;9.90;6.28;;;4.90;84.00;;;4.02;67.47;94022.00;5048554;28;20223;-79
2021/01/06 04:28:45;;;;;;;7.18;5.63;;;4.90;84.00;;;4.03;67.85;94013.22;5028032;28;20721;-79
2021/01/06 04:31:19;;;;;;;7.13;5.30;;;4.90;83.90;;;4.02;67.84;94016.81;5012881;28;20586;-79
2021/01/06 04:33:54;;;;;;;7.22;5.38;;;4.90;83.90;;;4.01;68.10;94021.16;5038730;28;20296;-79
2021/01/06 04:36:29;;;;;;;7.35;5.20;;;4.90;83.90;;;4.00;67.83;94010.97;5050934;28;20207;-79
2021/01/06 04:39:01;;;;;;;7.32;5.00;;;4.90;83.90;;;4.01;67.75;94012.59;5047047;28;20208;-79
2021/01/06 04:41:37;;;;;;;7.07;5.28;;;4.90;83.90;;;4.00;67.63;94011.78;5047153;28;20291;-78
2021/01/06 04:44:31;;;;;;;7.78;4.95;;;4.90;83.90;;;4.01;67.85;94015.19;5062028;28;20192;-79
2021/01/06 04:47:49;;;;;;;6.10;4.65;;;4.90;83.90;;;3.98;67.65;94011.16;5072384;28;20208;-80
2021/01/06 04:50:56;;;;;;;6.38;4.70;;;4.90;83.90;;;3.98;67.71;94015.56;5022347;28;20806;-79
2021/01/06 04:53:25;;;;;;;4.82;4.00;;;4.90;83.80;;;3.97;67.91;94013.94;5063806;28;20282;-79
2021/01/06 04:55:55;;;;;;;5.97;4.32;;;4.90;83.90;;;3.97;67.93;94008.75;5048891;28;20212;-79
2021/01/06 04:58:50;;;;;;;4.97;4.15;;;4.90;83.80;;;3.91;67.71;94007.63;5071108;28;20614;-79
2021/01/06 05:02:00;;;;;;;5.47;4.18;;;4.90;83.90;;;3.94;67.91;94007.31;5070043;28;20737;-81
2021/01/06 05:04:51;;;;;;;5.85;4.25;;;4.90;83.80;;;3.93;67.55;94008.28;5046995;28;20227;-80
2021/01/06 05:07:33;;;;;;;5.47;3.90;;;4.90;83.90;;;3.94;67.79;94009.06;5047152;28;20239;-79
2021/01/06 05:10:36;;;;;;;7.47;4.05;;;4.80;83.70;;;3.92;67.69;94008.44;5052339;28;20270;-80
2021/01/06 05:13:29;;;;;;;5.43;3.97;;;4.80;83.70;;;3.90;67.84;94003.41;5028964;28;20246;-79
2021/01/06 05:16:05;;;;;;;4.03;3.28;;;4.80;83.80;;;3.92;67.95;94008.44;5022624;28;20216;-80
2021/01/06 05:18:34;;;;;;;4.00;3.35;;;4.80;83.70;;;3.90;67.70;94000.81;5048840;28;20273;-79
2021/01/06 05:21:06;;;;;;;4.65;3.42;;;4.80;83.70;;;3.95;67.68;94000.31;5032442;28;20224;-80
2021/01/06 05:23:37;;;;;;;4.88;3.47;;;4.80;83.80;;;3.94;67.86;94009.06;5049524;28;20218;-80
2021/01/06 05:26:05;;;;;;;5.18;3.47;;;4.90;83.90;;;3.96;67.82;94001.94;5030897;28;20220;-81
2021/01/06 05:28:32;;;;;;;3.92;3.17;;;4.80;83.80;;;3.96;68.03;94002.72;5031707;28;20273;-81
2021/01/06 05:30:59;;;;;;;4.60;3.30;;;4.80;83.80;;;3.97;67.72;94003.56;5033610;28;20232;-81
2021/01/06 05:33:48;;;;;;;4.05;2.88;;;4.80;83.80;;;3.95;67.52;93997.72;5033095;28;20204;-80
2021/01/06 05:36:22;;;;;;;3.58;3.10;;;4.80;83.80;;;3.97;67.66;93998.38;5065825;28;20640;-80
2021/01/06 05:38:49;;;;;;;4.57;2.65;;;4.80;83.80;;;3.98;67.97;93999.97;5047587;28;20194;-80
2021/01/06 05:41:16;;;;;;;3.63;3.00;;;4.80;83.80;;;3.95;67.60;93995.91;5033307;28;20765;-79
2021/01/06 05:43:49;;;;;;;3.55;2.70;;;4.80;83.80;;;3.99;67.62;93997.19;5051142;28;20824;-80
2021/01/06 05:46:30;;;;;;;3.85;2.75;;;4.80;83.70;;;3.96;67.48;93991.56;5063660;28;20304;-81
2021/01/06 05:49:24;;;;;;;3.45;2.88;;;4.80;83.70;;;3.94;67.72;93996.94;5051460;28;20586;-80
2021/01/06 05:52:01;;;;;;;4.03;2.85;;;4.90;84.00;;;3.95;67.86;93993.31;5051937;28;20742;-79
2021/01/06 05:54:52;;;;;;;5.40;3.33;;;4.90;83.70;;;3.95;67.60;93989.94;5049410;28;20311;-80
2021/01/06 05:58:04;;;;;;;4.07;3.17;;;4.90;83.70;;;3.94;67.57;93990.91;5051906;28;20188;-80
2021/01/06 06:00:59;;;;;;;4.22;3.50;;;4.80;83.60;;;3.85;67.51;93978.00;5051016;28;20224;-79
2021/01/06 06:04:17;;;;;;;3.97;3.58;;;4.80;83.60;;;3.84;67.50;93981.59;5051728;28;20301;-79
2021/01/06 06:07:23;;;;;;;3.95;3.40;;;4.80;83.60;;;3.82;67.90;93978.34;5010128;28;20296;-79
2021/01/06 06:10:45;;;;;;;196.48;78.35;;;4.80;83.60;;;3.82;67.53;93980.13;4968044;28;20241;-79
2021/01/06 06:13:33;;;;;;;103.72;68.63;;;4.80;83.60;;;3.80;67.92;93980.31;5068213;28;20200;-79
2021/01/06 06:16:54;;;;;;;41.10;30.23;;;4.80;83.60;;;3.77;67.65;93983.25;5047602;28;20212;-79
2021/01/06 06:19:54;;;;;;;19.85;13.95;;;4.70;83.60;;;3.76;67.54;93984.25;5022300;28;20224;-79
2021/01/06 06:22:39;;;;;;;10.00;8.30;;;4.70;83.50;;;3.74;67.90;93975.03;5066915;28;20202;-80
2021/01/06 06:25:37;;;;;;;6.60;5.80;;;4.70;83.50;;;3.76;67.73;93975.63;5034349;28;20224;-79
2021/01/06 06:28:16;;;;;;;6.63;5.18;;;4.70;83.60;;;3.76;67.57;93981.66;5050274;28;20250;-79
2021/01/06 06:31:22;;;;;;;5.10;4.60;;;4.70;83.60;;;3.78;67.59;93981.47;5034987;28;20220;-80
2021/01/06 06:34:02;;;;;;;12.18;8.20;;;4.70;83.60;;;3.76;67.47;93979.06;5040994;28;20587;-79
2021/01/06 06:36:33;;;;;;;6.88;6.18;;;4.70;83.60;;;3.75;67.77;93982.63;5050216;28;20196;-79
2021/01/06 06:39:30;;;;;;;7.38;5.03;;;4.70;83.60;;;3.76;67.68;93980.81;5033738;28;20188;-79
2021/01/06 06:42:18;;;;;;;4.53;4.00;;;4.70;83.60;;;3.76;67.61;93984.25;5066464;28;20245;-79
2021/01/06 06:45:38;;;;;;;62.22;53.60;;;4.70;83.60;;;3.75;67.75;93984.38;5069501;28;20273;-79
2021/01/06 06:48:10;;;;;;;26.52;24.02;;;4.70;83.60;;;3.75;67.44;93981.78;5085208;28;20204;-79
2021/01/06 06:50:53;;;;;;;12.95;11.75;;;4.60;83.60;;;3.75;67.75;93981.78;5052251;28;20224;-79
2021/01/06 06:53:41;;;;;;;8.95;8.13;;;4.70;83.60;;;3.77;67.74;93991.03;5059749;28;20188;-79
2021/01/06 06:56:35;;;;;;;6.75;6.03;;;4.70;83.70;;;3.77;67.69;93985.84;5067118;28;20212;-80
2021/01/06 06:59:13;;;;;;;5.93;5.38;;;4.70;83.70;;;3.77;67.62;93991.03;5051328;28;20620;-79
2021/01/06 07:01:46;;;;;;;5.88;5.28;;;4.70;83.60;;;3.78;67.57;93987.44;5035333;28;20293;-79
2021/01/06 07:04:27;;;;;;;5.43;4.93;;;4.70;84.40;;;3.78;67.58;93987.44;5035662;28;20273;-79
2021/01/06 07:06:57;;;;;;;6.97;6.28;;;4.70;83.60;;;3.77;67.69;93990.22;5051955;28;20236;-79
2021/01/06 07:09:40;;;;;;;6.18;5.35;;;4.70;83.60;;;3.74;67.43;93986.19;5051740;28;20204;-79
2021/01/06 07:12:13;;;;;;;5.53;4.75;;;4.70;83.60;;;3.78;67.62;93997.03;5043085;28;20314;-78
2021/01/06 07:14:57;;;;;;;4.68;4.22;;;4.70;83.60;;;3.76;67.51;93989.44;5048637;28;20224;-79
2021/01/06 07:17:36;;;;;;;6.07;4.38;;;4.70;83.60;;;3.79;67.85;93996.84;5041864;28;20211;-78
2021/01/06 07:20:17;;;;;;;5.43;4.22;;;4.70;83.70;;;3.79;67.90;93991.66;5043689;28;20303;-80
2021/01/06 07:22:57;;;;;;;4.05;3.65;;;4.70;83.70;;;3.80;67.63;93998.47;5046496;28;20694;-79
2021/01/06 07:25:33;;;;;;;4.43;4.03;;;4.70;83.60;;;3.81;67.61;93996.69;5033902;28;20226;-79
2021/01/06 07:28:04;;;;;;;5.40;4.20;;;4.70;83.70;;;3.81;67.40;93994.91;5035455;28;20188;-79
2021/01/06 07:30:38;;;;;;;4.85;4.32;;;4.70;83.60;;;3.81;67.65;93997.50;5051343;28;20320;-81
2021/01/06 07:33:35;;;;;;;4.53;4.05;;;4.70;83.60;;;3.81;67.53;93996.69;5031988;28;20279;-80
2021/01/06 07:36:17;;;;;;;4.60;4.00;;;4.70;83.50;;;3.81;67.44;94000.09;5051839;28;20232;-78
2021/01/06 07:38:46;;;;;;;4.85;4.25;;;4.70;83.60;;;3.81;67.66;94000.09;5051144;28;20234;-80
2021/01/06 07:41:16;;;;;;;4.35;3.95;;;4.70;83.60;;;3.82;67.93;93996.50;5029762;28;20227;-80
2021/01/06 07:44:35;;;;;;;5.10;4.03;;;4.70;83.60;;;3.82;67.56;93996.50;5063653;28;20650;-80
2021/01/06 07:47:01;;;;;;;5.65;4.25;;;4.70;83.60;;;3.85;67.83;94001.34;5029653;28;20232;-80
2021/01/06 07:49:56;;;;;;;5.07;4.57;;;4.70;83.70;;;3.87;67.60;94003.78;5049286;28;20319;-79
2021/01/06 07:52:52;;;;;;;5.35;4.35;;;4.70;83.70;;;3.89;67.76;94001.00;5049137;28;20228;-80
2021/01/06 07:55:53;;;;;;;5.53;4.93;;;4.70;83.70;;;3.92;67.69;94006.66;5055437;28;20259;-81
2021/01/06 07:58:37;;;;;;;5.20;3.85;;;4.70;83.70;;;3.94;67.55;93990.91;5046783;28;20615;-79
2021/01/06 08:01:43;;;;;;;5.45;4.95;;;4.80;83.70;;;3.92;67.56;93992.88;5055708;28;20266;-79
2021/01/06 08:04:39;;;;;;;5.30;4.35;;;4.80;83.70;;;3.98;67.48;94002.56;5045422;28;20220;-80
2021/01/06 08:07:08;;;;;;;5.75;4.65;;;4.80;83.70;;;4.00;67.64;94003.19;5042597;28;20263;-80
2021/01/06 08:09:41;;;;;;;5.40;4.30;;;4.80;83.80;;;4.04;67.59;94001.06;5048440;28;20246;-79
2021/01/06 08:12:37;;;;;;;7.18;4.90;;;4.90;83.80;;;4.06;67.85;94012.06;5055812;28;20193;-80
2021/01/06 08:15:27;;;;;;;7.90;6.25;;;4.90;83.70;;;4.05;67.59;94002.69;5045959;28;20337;-80
2021/01/06 08:18:32;;;;;;;5.90;4.90;;;4.90;83.70;;;4.05;67.42;94005.28;5032086;28;20192;-81
2021/01/06 08:21:50;;;;;;;7.90;5.55;;;4.90;83.60;;;4.04;67.58;94004.47;5039989;28;20289;-80
2021/01/06 08:24:20;;;;;;;5.10;4.22;;;4.90;83.60;;;4.06;67.64;94001.69;5009549;28;20676;-80
2021/01/06 08:27:00;;;;;;;6.93;4.53;;;4.90;83.60;;;4.08;67.63;93997.94;5001984;28;20232;-80
2021/01/06 08:29:32;;;;;;;5.85;4.55;;;4.90;83.50;;;4.10;67.51;93998.59;5029094;28;20219;-80
2021/01/06 08:32:17;;;;;;;5.80;4.50;;;4.90;83.70;;;4.12;67.02;93991.41;5078788;28;20265;-79
2021/01/06 08:34:59;;;;;;;5.43;4.20;;;5.00;83.60;;;4.15;67.32;93995.44;5056538;28;20234;-80
2021/01/06 08:37:34;;;;;;;5.28;4.47;;;5.00;83.60;;;4.19;67.38;94001.09;5029376;28;20234;-79
2021/01/06 08:40:07;;;;;;;6.10;4.22;;;5.00;83.60;;;4.19;67.03;93990.72;5047678;28;20251;-80
2021/01/06 08:42:40;;;;;;;7.70;5.47;;;5.00;83.70;;;4.23;67.58;93999.78;5063348;28;20184;-81
2021/01/06 08:45:22;;;;;;;5.45;4.45;;;5.00;83.70;;;4.28;67.31;93997.47;5046904;28;20519;-80
2021/01/06 08:47:49;;;;;;;6.20;4.80;;;5.00;83.80;;;4.35;67.63;94000.19;5043074;28;20232;-80
2021/01/06 08:50:16;;;;;;;5.35;4.30;;;5.10;84.00;;;4.42;67.72;93991.50;5047202;28;20289;-80
2021/01/06 08:52:54;;;;;;;6.63;4.53;;;5.10;84.10;;;4.52;67.71;93998.22;5050242;28;20565;-81
2021/01/06 08:55:29;;;;;;;4.13;3.72;;;5.20;84.00;;;4.57;67.46;93994.09;5048127;28;20243;-80
2021/01/06 08:58:05;;;;;;;6.55;4.20;;;5.20;83.90;;;4.61;67.24;94004.94;5065594;28;20199;-80
2021/01/06 09:00:53;;;;;;;5.25;4.40;;;5.20;83.90;;;4.56;67.13;93996.88;5064578;28;20285;-80
2021/01/06 09:03:58;;;;;;;5.30;3.80;;;5.30;83.60;;;4.53;66.84;93994.63;5065724;28;20253;-80
2021/01/06 09:06:25;;;;;;;4.78;4.20;;;5.30;84.20;;;4.55;67.04;93996.06;5065212;28;20314;-79
2021/01/06 09:09:03;;;;;;;6.82;4.85;;;5.40;83.60;;;4.55;67.11;93996.06;5064943;28;20271;-80
2021/01/06 09:11:46;;;;;;;6.40;4.60;;;5.30;83.50;;;4.56;67.30;93997.69;5063435;28;20199;-79
2021/01/06 09:14:34;;;;;;;5.18;4.68;;;5.30;83.50;;;4.61;67.41;94008.38;5063618;28;20196;-80
2021/01/06 09:17:04;;;;;;;5.30;4.50;;;5.30;83.40;;;4.68;67.42;94003.25;5031044;28;20659;-80
2021/01/06 09:19:51;;;;;;;5.45;4.72;;;5.40;83.80;;;4.76;67.54;94004.94;5049880;28;20300;-79
2021/01/06 09:22:18;;;;;;;6.10;4.93;;;5.40;83.80;;;4.85;67.43;94006.50;5067303;28;21476;-80
2021/01/06 09:24:46;;;;;;;5.85;4.85;;;5.50;84.10;;;4.93;67.33;93993.41;5034578;28;20227;-80
2021/01/06 09:27:40;;;;;;;6.13;4.93;;;5.50;84.10;;;5.04;67.62;93999.13;5034897;28;20231;-80
2021/01/06 09:30:46;;;;;;;5.65;4.82;;;5.60;83.90;;;5.15;67.62;93995.28;5035327;28;20269;-80
2021/01/06 09:33:23;;;;;;;5.97;4.40;;;5.70;83.90;;;5.23;67.28;94001.19;5056317;28;20210;-79
2021/01/06 09:35:50;;;;;;;5.88;5.03;;;5.70;84.00;;;5.31;67.30;93997.69;5033919;28;20251;-80
2021/01/06 09:38:37;;;;;;;6.50;4.68;;;5.90;84.20;;;5.36;67.14;93997.13;5052095;28;20277;-79
2021/01/06 09:41:10;;;;;;;5.88;4.88;;;5.90;83.90;;;5.40;66.74;94003.59;5065055;28;20215;-79
2021/01/06 09:44:00;;;;;;;5.93;5.13;;;6.00;83.80;;;5.36;66.83;93986.72;5048581;28;20658;-79
2021/01/06 09:47:00;;;;;;;5.05;4.50;;;6.00;83.30;;;5.33;66.29;93997.50;5031576;28;20324;-79
2021/01/06 09:49:37;;;;;;;5.85;4.78;;;6.00;83.20;;;5.31;66.73;93999.47;5050025;28;20270;-79
2021/01/06 09:52:35;;;;;;;5.05;4.55;;;6.10;83.20;;;5.31;66.78;93991.66;5035373;28;20678;-79
2021/01/06 09:55:05;;;;;;;5.47;4.93;;;6.00;82.90;;;5.31;66.71;93996.88;5016433;28;20220;-79
2021/01/06 09:57:33;;;;;;;7.22;4.82;;;6.00;83.20;;;5.32;66.70;93995.88;5050491;28;20214;-79
2021/01/06 10:00:22;;;;;;;6.68;5.03;;;6.10;83.20;;;5.32;66.84;93994.09;5070385;28;20593;-79
2021/01/06 10:02:50;;;;;;;6.82;4.97;;;6.10;83.30;;;5.38;66.87;93993.38;5033254;28;20228;-79
2021/01/06 10:05:53;;;;;;;7.00;5.30;;;6.10;83.30;;;5.43;67.09;93996.22;5030826;28;20219;-80
2021/01/06 10:08:43;;;;;;;7.47;5.13;;;6.10;83.00;;;5.48;66.96;93990.50;5053455;28;20234;-79
2021/01/06 10:11:55;;;;;;;7.63;5.45;;;6.20;83.10;;;5.52;66.61;93989.13;5049732;28;20244;-80
2021/01/06 10:14:46;;;;;;;6.18;4.85;;;6.20;83.30;;;5.55;66.50;93985.34;5050743;28;20588;-80
2021/01/06 10:17:47;;;;;;;8.43;6.15;;;6.20;83.30;;;5.56;66.59;93986.97;5059144;28;20708;-80
2021/01/06 10:20:38;;;;;;;12.93;7.32;;;6.20;83.20;;;5.60;66.76;93990.78;5038905;28;20231;-80
2021/01/06 10:23:49;;;;;;;15.52;8.50;;;6.30;83.00;;;5.66;66.76;93979.66;5071526;28;20250;-80
2021/01/06 10:26:49;;;;;;;14.60;8.88;;;6.30;83.00;;;5.74;67.19;93979.53;5035004;28;20255;-81
2021/01/06 10:29:21;;;;;;;15.50;8.88;;;6.40;83.20;;;5.84;66.75;93975.84;5040927;28;20897;-80
2021/01/06 10:32:12;;;;;;;12.20;7.22;;;6.40;83.60;;;5.92;66.82;93973.91;5036666;28;20250;-80
2021/01/06 10:34:43;;;;;;;8.10;6.13;;;6.50;83.20;;;6.01;66.74;93968.63;5068437;28;20362;-80
2021/01/06 10:37:19;;;;;;;8.00;6.15;;;6.60;83.80;;;6.12;66.78;93972.53;5034339;28;20671;-80
2021/01/06 10:39:50;;;;;;;9.40;6.30;;;6.60;83.30;;;6.19;66.85;93958.56;5040808;28;20216;-80
2021/01/06 10:42:17;;;;;;;7.35;5.90;;;6.70;83.60;;;6.34;66.57;93968.09;5046637;28;20211;-81
2021/01/06 10:44:55;;;;;;;7.53;5.55;;;6.80;83.80;;;6.44;66.62;93963.34;5070282;28;20212;-81
2021/01/06 10:47:32;;;;;;;8.13;6.55;;;6.80;83.30;;;6.58;66.70;93964.25;5085967;28;20219;-81
2021/01/06 10:50:13;;;;;;;8.30;5.88;;;6.90;83.40;;;6.67;66.59;93954.50;5068419;28;20226;-81
2021/01/06 10:53:17;;;;;;;8.50;6.55;;;7.00;83.80;;;6.83;66.47;93953.38;5056600;28;20278;-81
2021/01/06 10:56:00;;;;;;;7.60;6.30;;;7.10;83.20;;;6.96;66.23;93957.88;5052231;28;20709;-82
2021/01/06 10:58:52;;;;;;;6.57;5.63;;;7.30;84.00;;;7.08;66.23;93947.66;5076120;28;20200;-82
2021/01/06 11:01:25;;;;;;;6.75;5.55;;;7.40;83.10;;;7.16;66.13;93944.91;5051833;28;20523;-81
2021/01/06 11:04:34;;;;;;;11.27;7.25;;;7.40;83.20;;;7.22;65.91;93947.53;5067107;28;20204;-81
2021/01/06 11:07:37;;;;;;;9.05;7.03;;;7.60;82.80;;;7.33;66.34;93947.97;5062375;28;20219;-81
2021/01/06 11:10:38;;;;;;;9.18;7.13;;;7.70;82.80;;;7.40;65.59;93942.78;5034065;28;20736;-81
2021/01/06 11:13:25;;;;;;;9.63;7.78;;;7.80;82.70;;;7.48;65.84;93938.22;5067773;28;20208;-81
2021/01/06 11:15:55;;;;;;;7.90;6.80;;;7.80;83.10;;;7.54;65.82;93941.81;5034587;28;20698;-81
2021/01/06 11:18:22;;;;;;;8.95;7.18;;;8.00;83.40;;;7.59;65.73;93947.28;5046987;28;20293;-82
2021/01/06 11:21:45;;;;;;;8.70;7.20;;;8.00;83.20;;;7.57;65.58;93935.41;5061524;28;20243;-81